»·PEaware :: N695DS KBUR-KSAN

N695DS :: KBUR-KSAN

FLIGHT INFORMATION

Flight Status: Arrived
Operator: Privately registered:
United States
More flights under this callsign
Pilot: Christopher S. (2105)
Aircraft: Unknown
(DA62)
More flights by this aircraft type
Origin: KBUR Bob Hope-Burbank
United States
Destination: KSAN San Diego Intl-Lindbergh
United States
More flights between these airports :: More routes between these airports
Route: V186 HAILE V66 MZB
File this flight plan on PilotEdge
Remarks: TEC route BURP29
Altitude:
(Current/Filed)
9,000ft
Speed:
(Current/Filed)
175kts
Departed: 06-Feb-19 08:37 PM
Arrived: 06-Feb-19 09:32 PM
Distance/Time
Traveled:
106nm/0:55
Distance/Time
To Go:
Arrived

Flight Plot

Page will automatically refresh every two minutes.


Map Options




Map Legend


Flown Route
Filed Route
Departure Airport
Arrival Airport
Navaid (VOR, NDB)
Fix

Horizontal Profiles

Position Reports

Time Latitude Longitude Heading Altitude Ground
Speed
06-Feb-19 19:54 34.200500 -118.365995 182 728ft 0kts
06-Feb-19 19:55 34.200500 -118.365995 182 728ft 0kts
06-Feb-19 19:56 34.200500 -118.365995 182 728ft 0kts
06-Feb-19 19:57 34.200500 -118.365995 182 728ft 0kts
06-Feb-19 19:58 34.200500 -118.365995 182 728ft 0kts
06-Feb-19 19:59 34.200500 -118.365995 182 728ft 0kts
06-Feb-19 20:00 34.200500 -118.365995 182 728ft 0kts
06-Feb-19 20:01 34.200500 -118.365995 182 728ft 0kts
06-Feb-19 20:02 34.200500 -118.365995 182 728ft 0kts
06-Feb-19 20:03 34.200469 -118.366477 283 728ft 3kts
06-Feb-19 20:04 34.200395 -118.366410 88 728ft 0kts
06-Feb-19 20:05 34.200395 -118.366410 88 728ft 0kts
06-Feb-19 20:06 34.200395 -118.366410 88 728ft 0kts
06-Feb-19 20:07 34.200395 -118.366410 88 728ft 0kts
06-Feb-19 20:08 34.200395 -118.366410 88 728ft 0kts
06-Feb-19 20:09 34.200395 -118.366410 88 728ft 0kts
06-Feb-19 20:10 34.200395 -118.366410 88 728ft 0kts
06-Feb-19 20:11 34.200395 -118.366410 88 728ft 0kts
06-Feb-19 20:12 34.200395 -118.366410 88 728ft 0kts
06-Feb-19 20:13 34.200395 -118.366410 88 728ft 0kts
06-Feb-19 20:14 34.200395 -118.366410 88 728ft 0kts
06-Feb-19 20:15 34.200395 -118.366410 88 728ft 0kts
06-Feb-19 20:16 34.200395 -118.366410 88 728ft 0kts
06-Feb-19 20:17 34.200395 -118.366410 88 728ft 0kts
06-Feb-19 20:18 34.200395 -118.366410 88 728ft 0kts
06-Feb-19 20:19 34.200395 -118.366410 88 728ft 0kts
06-Feb-19 20:20 34.200395 -118.366410 88 728ft 0kts
06-Feb-19 20:21 34.200395 -118.366410 88 728ft 0kts
06-Feb-19 20:22 34.200395 -118.366410 88 728ft 0kts
06-Feb-19 20:23 34.200395 -118.366410 88 728ft 0kts
06-Feb-19 20:24 34.200395 -118.366410 88 728ft 0kts
06-Feb-19 20:25 34.200395 -118.366410 88 728ft 0kts
06-Feb-19 20:26 34.200395 -118.366410 88 728ft 0kts
06-Feb-19 20:27 34.199107 -118.365676 90 725ft 13kts
06-Feb-19 20:28 34.198889 -118.359107 89 716ft 25kts
06-Feb-19 20:29 34.198460 -118.357967 182 712ft 5kts
06-Feb-19 20:30 34.195362 -118.356802 171 703ft 17kts
06-Feb-19 20:31 34.194673 -118.356625 162 702ft 0kts
06-Feb-19 20:32 34.194673 -118.356625 162 702ft 0kts
06-Feb-19 20:33 34.194673 -118.356625 162 702ft 0kts
06-Feb-19 20:34 34.194521 -118.356567 158 701ft 6kts
06-Feb-19 20:35 34.195934 -118.355940 345 703ft 32kts
06-Feb-19 20:37 34.216209 -118.362387 314 1584ft 89kts
06-Feb-19 20:38 34.220275 -118.391659 281 3061ft 101kts
06-Feb-19 20:39 34.223286 -118.427235 281 4024ft 126kts
06-Feb-19 20:40 34.227422 -118.470732 281 4018ft 130kts
06-Feb-19 20:41 34.219580 -118.507481 193 4353ft 134kts
06-Feb-19 20:42 34.190618 -118.481262 130 4796ft 131kts
06-Feb-19 20:43 34.179000 -118.440148 101 5199ft 131kts
06-Feb-19 20:44 34.169605 -118.396711 101 5937ft 136kts
06-Feb-19 20:45 34.160154 -118.346687 101 6773ft 159kts
06-Feb-19 20:46 34.151682 -118.293589 101 7746ft 163kts
06-Feb-19 20:47 34.144965 -118.239165 101 8719ft 165kts
06-Feb-19 20:48 34.129743 -118.183367 116 9009ft 192kts
06-Feb-19 20:49 34.110733 -118.121107 116 8998ft 199kts
06-Feb-19 20:50 34.095538 -118.071521 116 8997ft 198kts
06-Feb-19 20:51 34.076318 -118.009018 115 9000ft 199kts
06-Feb-19 20:52 34.056870 -117.945818 114 9005ft 202kts
06-Feb-19 20:53 34.037074 -117.881599 113 9008ft 204kts
06-Feb-19 20:54 34.017138 -117.817038 113 9010ft 206kts
06-Feb-19 20:55 33.996840 -117.752727 116 9010ft 205kts
06-Feb-19 20:55 33.978357 -117.699938 116 9011ft 204kts
06-Feb-19 20:57 33.952447 -117.626436 116 9015ft 204kts
06-Feb-19 20:58 33.930201 -117.563412 116 9017ft 204kts
06-Feb-19 20:58 33.903724 -117.519131 149 9015ft 193kts
06-Feb-19 20:59 33.860615 -117.481607 152 9014ft 190kts
06-Feb-19 21:00 33.817204 -117.445113 152 9009ft 189kts
06-Feb-19 21:02 33.766371 -117.402626 151 9032ft 194kts
06-Feb-19 21:02 33.729202 -117.371522 151 9032ft 196kts
06-Feb-19 21:03 33.684311 -117.334034 151 9029ft 196kts
06-Feb-19 21:04 33.639583 -117.296747 151 9032ft 195kts
06-Feb-19 21:05 33.594915 -117.259560 151 9016ft 195kts
06-Feb-19 21:06 33.550293 -117.222457 151 9017ft 195kts
06-Feb-19 21:07 33.505799 -117.185328 151 9017ft 195kts
06-Feb-19 21:08 33.461253 -117.148137 151 9017ft 195kts
06-Feb-19 21:09 33.416738 -117.110968 151 9017ft 195kts
06-Feb-19 21:10 33.372203 -117.073615 151 9017ft 196kts
06-Feb-19 21:11 33.325720 -117.056085 195 9021ft 176kts
06-Feb-19 21:12 33.276905 -117.057208 154 9031ft 194kts
06-Feb-19 21:13 33.232255 -117.019360 151 9018ft 197kts
06-Feb-19 21:14 33.184139 -116.989497 161 9018ft 194kts
06-Feb-19 21:15 33.135424 -116.960265 161 8972ft 196kts
06-Feb-19 21:16 33.085963 -116.931200 160 8966ft 201kts
06-Feb-19 21:17 33.033502 -116.901919 160 8546ft 219kts
06-Feb-19 21:18 32.976169 -116.873095 160 7777ft 226kts
06-Feb-19 21:19 32.917764 -116.846228 160 7015ft 224kts
06-Feb-19 21:20 32.859952 -116.836093 180 6503ft 207kts
06-Feb-19 21:21 32.803208 -116.834120 196 5665ft 200kts
06-Feb-19 21:22 32.759120 -116.868910 216 4864ft 185kts
06-Feb-19 21:23 32.716468 -116.901596 214 4052ft 180kts
06-Feb-19 21:24 32.684004 -116.935264 257 3982ft 142kts
06-Feb-19 21:25 32.683514 -116.982341 286 3458ft 144kts
06-Feb-19 21:26 32.694172 -117.027628 288 2851ft 141kts
06-Feb-19 21:27 32.705354 -117.072470 284 2163ft 144kts
06-Feb-19 21:28 32.715020 -117.113992 286 1358ft 115kts
06-Feb-19 21:29 32.723450 -117.148078 286 723ft 98kts
06-Feb-19 21:30 32.730811 -117.178367 288 98ft 88kts
06-Feb-19 21:31 32.734758 -117.189581 105 17ft 17kts
06-Feb-19 21:32 32.734927 -117.187961 63 17ft 0kts

Navigation Log

Ident Type
Flight plan parsing failed, navigation log unavailable